createdAt,value
2017-04-03T00:00:06.501Z,30.1
2017-04-03T00:01:06.549Z,30.1
2017-04-03T00:02:05.000Z,30.1
2017-04-03T00:03:06.637Z,30.1
2017-04-03T00:04:06.799Z,30.1
2017-04-03T00:05:05.308Z,30
2017-04-03T00:06:06.859Z,30
2017-04-03T00:07:05.192Z,30
2017-04-03T00:08:05.287Z,30
2017-04-03T00:09:05.534Z,30
2017-04-03T00:10:05.388Z,30
2017-04-03T00:11:05.473Z,30
2017-04-03T00:12:07.152Z,30
2017-04-03T00:13:05.580Z,30
2017-04-03T00:14:05.802Z,30
2017-04-03T00:15:05.664Z,30
2017-04-03T00:16:07.444Z,30
2017-04-03T00:17:05.966Z,30
2017-04-03T00:18:05.975Z,30
2017-04-03T00:19:07.525Z,30
2017-04-03T00:20:06.055Z,30
2017-04-03T00:21:06.155Z,30
2017-04-03T00:22:06.221Z,30
2017-04-03T00:23:06.113Z,30
2017-04-03T00:24:07.747Z,30
2017-04-03T00:25:07.904Z,30
2017-04-03T00:26:07.887Z,30
2017-04-03T00:27:06.621Z,30
2017-04-03T00:28:06.482Z,30
2017-04-03T00:29:06.554Z,30
2017-04-03T00:30:06.546Z,30
2017-04-03T00:31:08.016Z,30
2017-04-03T00:32:11.033Z,30
2017-04-03T00:33:06.745Z,30
2017-04-03T00:34:08.220Z,30
2017-04-03T00:35:06.762Z,30
2017-04-03T00:36:08.252Z,30
2017-04-03T00:37:08.387Z,30
2017-04-03T00:38:08.478Z,30
2017-04-03T00:39:08.470Z,30
2017-04-03T00:40:06.967Z,30
2017-04-03T00:41:08.623Z,30
2017-04-03T00:42:08.605Z,30
2017-04-03T00:43:07.310Z,30
2017-04-03T00:44:07.140Z,29.9
2017-04-03T00:45:07.201Z,29.9
2017-04-03T00:46:07.179Z,29.9
2017-04-03T00:47:07.276Z,30
2017-04-03T00:48:07.181Z,30
2017-04-03T00:49:09.829Z,30
2017-04-03T00:50:09.004Z,30
2017-04-03T00:51:07.501Z,30
2017-04-03T00:52:07.627Z,29.9
2017-04-03T00:53:09.138Z,29.9
2017-04-03T00:54:09.208Z,29.9
2017-04-03T00:55:07.870Z,29.9
2017-04-03T00:56:07.706Z,29.9
2017-04-03T00:57:07.849Z,29.9
2017-04-03T00:58:07.807Z,29.9
2017-04-03T00:59:09.407Z,29.9
2017-04-03T01:00:09.438Z,29.9
2017-04-03T01:01:08.080Z,29.9
2017-04-03T01:02:09.690Z,29.9
2017-04-03T01:03:09.566Z,29.9
2017-04-03T01:04:08.204Z,29.9
2017-04-03T01:05:08.288Z,29.9
2017-04-03T01:06:09.866Z,29.9
2017-04-03T01:07:08.572Z,29.9
2017-04-03T01:08:09.977Z,29.9
2017-04-03T01:09:09.964Z,29.9
2017-04-03T01:10:08.460Z,29.9
2017-04-03T01:11:08.570Z,29.9
2017-04-03T01:12:10.137Z,29.9
2017-04-03T01:13:10.930Z,29.9
2017-04-03T01:14:08.775Z,29.9
2017-04-03T01:15:10.430Z,29.9
2017-04-03T01:16:10.380Z,29.9
2017-04-03T01:17:10.421Z,29.9
2017-04-03T01:18:10.630Z,29.9
2017-04-03T01:19:09.496Z,29.9
2017-04-03T01:20:10.665Z,29.9
2017-04-03T01:21:10.577Z,29.9
2017-04-03T01:22:10.605Z,29.9
2017-04-03T01:23:09.024Z,29.9
2017-04-03T01:24:09.056Z,29.9
2017-04-03T01:25:09.232Z,29.9
2017-04-03T01:26:10.704Z,29.9
2017-04-03T01:27:09.124Z,29.9
2017-04-03T01:28:09.260Z,29.9
2017-04-03T01:29:10.844Z,29.9
2017-04-03T01:30:09.343Z,29.9
2017-04-03T01:31:11.066Z,29.9
2017-04-03T01:32:11.017Z,29.9
2017-04-03T01:33:09.432Z,29.9
2017-04-03T01:34:11.019Z,29.9
2017-04-03T01:35:11.028Z,29.9
2017-04-03T01:36:09.461Z,29.9
2017-04-03T01:37:10.022Z,29.9
2017-04-03T01:38:09.600Z,29.9
2017-04-03T01:39:09.751Z,29.9
2017-04-03T01:40:11.301Z,29.9
2017-04-03T01:41:11.361Z,29.9
2017-04-03T01:42:11.501Z,29.9
2017-04-03T01:43:10.180Z,29.9
2017-04-03T01:44:11.718Z,29.9
2017-04-03T01:45:11.642Z,29.9
2017-04-03T01:46:11.653Z,29.9
2017-04-03T01:47:11.764Z,29.9
2017-04-03T01:48:10.357Z,29.9
2017-04-03T01:49:12.116Z,29.9
2017-04-03T01:50:10.431Z,29.9
2017-04-03T01:51:11.983Z,29.9
2017-04-03T01:52:10.541Z,29.9
2017-04-03T01:53:10.408Z,29.9
2017-04-03T01:54:12.027Z,29.9
2017-04-03T01:55:10.616Z,29.9
2017-04-03T01:56:12.103Z,29.9
2017-04-03T01:57:10.648Z,29.9
2017-04-03T01:58:10.515Z,29.9
2017-04-03T01:59:10.737Z,29.9
2017-04-03T02:00:12.315Z,29.9
2017-04-03T02:01:12.538Z,29.8
2017-04-03T02:02:12.399Z,29.9
2017-04-03T02:03:10.991Z,29.9
2017-04-03T02:04:11.028Z,29.9
2017-04-03T02:05:12.796Z,29.9
2017-04-03T02:06:12.584Z,29.9
2017-04-03T02:07:11.140Z,29.9
2017-04-03T02:08:11.161Z,29.9
2017-04-03T02:09:12.716Z,29.9
2017-04-03T02:10:12.914Z,29.9
2017-04-03T02:11:12.893Z,29.9
2017-04-03T02:12:12.905Z,29.9
2017-04-03T02:13:12.952Z,29.9
2017-04-03T02:14:12.998Z,29.9
2017-04-03T02:15:13.061Z,29.9
2017-04-03T02:16:13.181Z,29.9
2017-04-03T02:17:13.205Z,29.9
2017-04-03T02:18:11.632Z,29.9
2017-04-03T02:19:11.635Z,29.9
2017-04-03T02:20:11.634Z,29.8
2017-04-03T02:21:13.374Z,29.9
2017-04-03T02:22:11.833Z,29.8
2017-04-03T02:23:13.593Z,29.8
2017-04-03T02:24:13.788Z,29.8
2017-04-03T02:25:13.692Z,29.8
2017-04-03T02:26:13.731Z,29.9
2017-04-03T02:27:13.773Z,29.8
2017-04-03T02:28:13.855Z,29.8
2017-04-03T02:29:14.037Z,29.8
2017-04-03T02:30:12.480Z,29.8
2017-04-03T02:31:13.986Z,29.8
2017-04-03T02:32:14.077Z,29.8
2017-04-03T02:33:12.615Z,29.8
2017-04-03T02:34:14.207Z,29.8
2017-04-03T02:35:14.125Z,29.8
2017-04-03T02:36:14.540Z,29.8
2017-04-03T02:37:14.199Z,29.8
2017-04-03T02:38:12.760Z,29.8
2017-04-03T02:39:12.763Z,29.8
2017-04-03T02:40:12.723Z,29.8
2017-04-03T02:41:13.302Z,29.8
2017-04-03T02:42:13.044Z,29.8
2017-04-03T02:43:14.524Z,29.8
2017-04-03T02:44:14.488Z,29.8
2017-04-03T02:45:13.114Z,29.8
2017-04-03T02:46:12.991Z,29.8
2017-04-03T02:47:14.877Z,29.8
2017-04-03T02:48:14.734Z,29.8
2017-04-03T02:49:14.689Z,29.8
2017-04-03T02:50:13.277Z,29.8
2017-04-03T02:51:14.833Z,29.8
2017-04-03T02:52:13.388Z,29.8
2017-04-03T02:53:13.494Z,29.8
2017-04-03T02:54:13.533Z,29.8
2017-04-03T02:55:15.082Z,29.8
2017-04-03T02:56:15.223Z,29.8
2017-04-03T02:57:15.117Z,29.8
2017-04-03T02:58:15.375Z,29.8
2017-04-03T02:59:14.020Z,29.8
2017-04-03T03:00:15.283Z,29.8
2017-04-03T03:01:15.425Z,29.8
2017-04-03T03:02:13.947Z,29.8
2017-04-03T03:03:15.531Z,29.8
2017-04-03T03:04:15.593Z,29.8
2017-04-03T03:05:14.189Z,29.8
2017-04-03T03:06:14.181Z,29.8
2017-04-03T03:07:14.065Z,29.8
2017-04-03T03:08:14.193Z,29.8
2017-04-03T03:09:14.284Z,29.8
2017-04-03T03:10:14.167Z,29.8
2017-04-03T03:11:15.987Z,29.8
2017-04-03T03:12:14.219Z,29.8
2017-04-03T03:13:15.902Z,29.8
2017-04-03T03:14:16.016Z,29.8
2017-04-03T03:15:16.000Z,29.7
2017-04-03T03:16:14.440Z,29.8
2017-04-03T03:17:14.697Z,29.8
2017-04-03T03:18:16.299Z,29.8
2017-04-03T03:19:14.655Z,29.8
2017-04-03T03:20:16.481Z,29.8
2017-04-03T03:21:14.968Z,29.8
2017-04-03T03:22:16.651Z,29.7
2017-04-03T03:23:15.258Z,29.8
2017-04-03T03:24:15.191Z,29.8
2017-04-03T03:25:16.653Z,29.8
2017-04-03T03:26:16.799Z,29.8
2017-04-03T03:27:16.932Z,29.8
2017-04-03T03:28:16.822Z,29.8
2017-04-03T03:29:17.196Z,29.8
2017-04-03T03:30:15.316Z,29.8
2017-04-03T03:31:16.936Z,29.7
2017-04-03T03:32:17.080Z,29.7
2017-04-03T03:33:15.561Z,29.7
2017-04-03T03:34:17.218Z,29.7
2017-04-03T03:35:15.676Z,29.7
2017-04-03T03:36:17.280Z,29.8
2017-04-03T03:37:15.616Z,29.8
2017-04-03T03:38:17.473Z,29.8
2017-04-03T03:39:17.440Z,29.8
2017-04-03T03:40:17.366Z,29.8
2017-04-03T03:41:18.450Z,29.7
2017-04-03T03:42:17.630Z,29.7
2017-04-03T03:43:17.631Z,29.7
2017-04-03T03:44:16.038Z,29.8
2017-04-03T03:45:16.294Z,29.8
2017-04-03T03:46:16.319Z,29.8
2017-04-03T03:47:18.098Z,29.8
2017-04-03T03:48:16.426Z,29.7
2017-04-03T03:49:18.110Z,29.8
2017-04-03T03:50:18.096Z,29.8
2017-04-03T03:51:18.152Z,29.8
2017-04-03T03:52:16.572Z,29.8
2017-04-03T03:53:16.801Z,29.7
2017-04-03T03:54:18.243Z,29.7
2017-04-03T03:55:18.334Z,29.7
2017-04-03T03:56:16.895Z,29.8
2017-04-03T03:57:17.028Z,29.8
2017-04-03T03:58:18.563Z,29.8
2017-04-03T03:59:17.410Z,29.8
2017-04-03T04:00:17.068Z,29.8
2017-04-03T04:02:17.274Z,29.8
2017-04-03T04:03:17.285Z,29.8
2017-04-03T04:04:18.875Z,29.8
2017-04-03T04:05:19.046Z,29.8
2017-04-03T04:06:17.294Z,29.8
2017-04-03T04:07:19.030Z,29.8
2017-04-03T04:08:17.369Z,29.8
2017-04-03T04:09:17.431Z,29.9
2017-04-03T04:10:19.129Z,29.9
2017-04-03T04:11:17.765Z,29.9
2017-04-03T04:12:19.308Z,29.9
2017-04-03T04:13:19.417Z,29.8
2017-04-03T04:14:17.883Z,29.9
2017-04-03T04:15:19.488Z,29.9
2017-04-03T04:16:17.769Z,29.9
2017-04-03T04:17:19.648Z,29.9
2017-04-03T04:18:19.450Z,29.9
2017-04-03T04:19:19.509Z,29.9
2017-04-03T04:20:17.946Z,29.9
2017-04-03T04:21:17.940Z,29.9
2017-04-03T04:22:19.670Z,29.9
2017-04-03T04:23:19.969Z,29.9
2017-04-03T04:24:18.124Z,29.9
2017-04-03T04:25:18.266Z,29.9
2017-04-03T04:26:19.926Z,29.9
2017-04-03T04:27:18.283Z,29.9
2017-04-03T04:28:19.908Z,29.9
2017-04-03T04:29:18.620Z,29.9
2017-04-03T04:30:20.022Z,29.9
2017-04-03T04:31:18.429Z,29.9
2017-04-03T04:32:20.182Z,29.9
2017-04-03T04:33:18.667Z,29.9
2017-04-03T04:34:18.609Z,29.9
2017-04-03T04:35:18.855Z,29.9
2017-04-03T04:36:20.246Z,29.9
2017-04-03T04:37:18.799Z,29.9
2017-04-03T04:38:18.790Z,29.9
2017-04-03T04:39:18.661Z,29.9
2017-04-03T04:40:18.774Z,29.8
2017-04-03T04:41:19.096Z,29.9
2017-04-03T04:42:20.444Z,29.9
2017-04-03T04:43:20.625Z,29.9
2017-04-03T04:44:18.933Z,29.9
2017-04-03T04:45:20.519Z,29.9
2017-04-03T04:46:20.528Z,29.9
2017-04-03T04:47:19.225Z,29.9
2017-04-03T04:48:19.143Z,29.9
2017-04-03T04:49:19.295Z,29.9
2017-04-03T04:50:20.914Z,30
2017-04-03T04:51:19.278Z,30
2017-04-03T04:52:19.537Z,30
2017-04-03T04:53:21.206Z,30
2017-04-03T04:54:21.111Z,30
2017-04-03T04:55:19.534Z,30
2017-04-03T04:56:21.195Z,30
2017-04-03T04:57:19.507Z,30
2017-04-03T04:58:19.542Z,30
2017-04-03T04:59:19.746Z,30
2017-04-03T05:00:19.796Z,30.1
2017-04-03T05:01:19.839Z,30.1
2017-04-03T05:02:19.700Z,30.1
2017-04-03T05:03:19.898Z,30.1
2017-04-03T05:04:21.464Z,30.1
2017-04-03T05:05:21.627Z,30.1
2017-04-03T05:06:20.047Z,30.1
2017-04-03T05:07:21.669Z,30.1
2017-04-03T05:08:21.687Z,30.2
2017-04-03T05:09:20.046Z,30.2
2017-04-03T05:10:21.699Z,30.2
2017-04-03T05:11:22.071Z,30.2
2017-04-03T05:12:20.278Z,30.2
2017-04-03T05:13:20.233Z,30.3
2017-04-03T05:14:21.888Z,30.3
2017-04-03T05:15:20.328Z,30.3
2017-04-03T05:16:20.386Z,30.3
2017-04-03T05:17:22.393Z,30.3
2017-04-03T05:18:20.626Z,30.3
2017-04-03T05:19:22.142Z,30.3
2017-04-03T05:20:20.806Z,30.3
2017-04-03T05:21:22.280Z,30.3
2017-04-03T05:22:20.738Z,30.4
2017-04-03T05:23:20.960Z,30.4
2017-04-03T05:24:21.076Z,30.4
2017-04-03T05:25:20.924Z,30.4
2017-04-03T05:26:22.745Z,30.4
2017-04-03T05:27:21.011Z,30.4
2017-04-03T05:28:21.253Z,30.4
2017-04-03T05:29:23.082Z,30.4
2017-04-03T05:30:21.295Z,30.4
2017-04-03T05:31:22.723Z,30.4
2017-04-03T05:32:22.975Z,30.4
2017-04-03T05:33:22.856Z,30.4
2017-04-03T05:34:21.454Z,30.4
2017-04-03T05:35:23.128Z,30.4
2017-04-03T05:36:21.523Z,30.4
2017-04-03T05:37:23.191Z,30.4
2017-04-03T05:38:21.517Z,30.4
2017-04-03T05:39:21.737Z,30.4
2017-04-03T05:40:21.655Z,30.4
2017-04-03T05:41:21.856Z,30.4
2017-04-03T05:42:23.494Z,30.4
2017-04-03T05:43:23.415Z,30.4
2017-04-03T05:44:23.528Z,30.4
2017-04-03T05:45:23.428Z,30.4
2017-04-03T05:46:22.046Z,30.4
2017-04-03T05:47:23.853Z,30.3
2017-04-03T05:48:23.660Z,30.1
2017-04-03T05:49:23.681Z,30
2017-04-03T05:50:23.759Z,29.8
2017-04-03T05:51:23.759Z,29.6
2017-04-03T05:52:23.933Z,29.4
2017-04-03T05:53:24.116Z,29.2
2017-04-03T05:54:22.456Z,29
2017-04-03T05:55:22.556Z,28.9
2017-04-03T05:56:23.139Z,28.7
2017-04-03T05:57:22.521Z,28.6
2017-04-03T05:58:22.711Z,28.5
2017-04-03T05:59:23.280Z,28.4
2017-04-03T06:00:24.244Z,28.3
2017-04-03T06:01:22.839Z,28.2
2017-04-03T06:02:24.446Z,28.1
2017-04-03T06:03:24.579Z,28.1
2017-04-03T06:04:22.913Z,28.1
2017-04-03T06:05:24.707Z,28
2017-04-03T06:06:23.023Z,28
2017-04-03T06:07:23.166Z,28
2017-04-03T06:08:23.137Z,28
2017-04-03T06:09:23.110Z,28
2017-04-03T06:10:23.368Z,27.9
2017-04-03T06:11:25.067Z,27.9
2017-04-03T06:12:24.967Z,27.9
2017-04-03T06:13:23.518Z,27.9
2017-04-03T06:14:25.157Z,27.8
2017-04-03T06:15:25.283Z,27.8
2017-04-03T06:16:25.220Z,27.7
2017-04-03T06:17:25.572Z,27.6
2017-04-03T06:18:25.373Z,27.5
2017-04-03T06:19:23.960Z,27.5
2017-04-03T06:20:24.019Z,27.4
2017-04-03T06:21:24.619Z,27.4
2017-04-03T06:22:23.964Z,27.3
2017-04-03T06:23:25.761Z,27.2
2017-04-03T06:24:25.565Z,27.2
2017-04-03T06:25:25.573Z,27.1
2017-04-03T06:26:24.084Z,27.1
2017-04-03T06:27:24.256Z,27
2017-04-03T06:28:24.342Z,27
2017-04-03T06:29:26.034Z,27.1
2017-04-03T06:30:24.420Z,27.1
2017-04-03T06:31:25.998Z,27
2017-04-03T06:32:26.193Z,27
2017-04-03T06:33:26.072Z,27
2017-04-03T06:34:26.239Z,27
2017-04-03T06:35:24.844Z,27
2017-04-03T06:36:24.743Z,27
2017-04-03T06:37:26.238Z,27
2017-04-03T06:38:24.824Z,27
2017-04-03T06:39:27.161Z,26.9
2017-04-03T06:40:26.516Z,26.9
2017-04-03T06:41:27.183Z,26.9
2017-04-03T06:42:25.574Z,26.9
2017-04-03T06:43:26.734Z,26.9
2017-04-03T06:44:25.655Z,26.9
2017-04-03T06:45:27.508Z,26.9
2017-04-03T06:46:25.115Z,26.8
2017-04-03T06:47:26.142Z,26.8
2017-04-03T06:48:25.230Z,26.7
2017-04-03T06:49:26.974Z,26.6
2017-04-03T06:50:25.327Z,26.6
2017-04-03T06:51:27.004Z,26.6
2017-04-03T06:52:25.437Z,26.5
2017-04-03T06:53:27.218Z,26.5
2017-04-03T06:54:25.558Z,26.4
2017-04-03T06:55:26.303Z,26.4
2017-04-03T06:56:30.123Z,26.4
2017-04-03T06:57:30.467Z,26.4
2017-04-03T06:58:30.109Z,26.3
2017-04-03T06:59:28.870Z,26.3
2017-04-03T07:00:30.859Z,26.3
2017-04-03T07:01:27.111Z,26.3
2017-04-03T07:02:26.063Z,26.3
2017-04-03T07:03:27.726Z,26.3
2017-04-03T07:04:26.081Z,26.3
2017-04-03T07:05:28.606Z,26.3
2017-04-03T07:06:26.401Z,26.3
2017-04-03T07:07:27.123Z,26.3
2017-04-03T07:08:26.463Z,26.4
2017-04-03T07:09:28.070Z,26.4
2017-04-03T07:10:32.100Z,26.5
2017-04-03T07:11:26.486Z,26.7
2017-04-03T07:12:28.103Z,26.8
2017-04-03T07:13:27.305Z,26.9
2017-04-03T07:14:26.641Z,27
2017-04-03T07:15:26.674Z,27.1
2017-04-03T07:16:28.311Z,27.2
2017-04-03T07:17:26.939Z,27.3
2017-04-03T07:18:26.991Z,27.4
2017-04-03T07:19:27.504Z,27.5
2017-04-03T07:20:27.143Z,27.6
2017-04-03T07:21:27.204Z,27.7
2017-04-03T07:22:27.258Z,27.7
2017-04-03T07:23:28.969Z,27.8
2017-04-03T07:24:28.867Z,27.9
2017-04-03T07:25:29.753Z,27.9
2017-04-03T07:26:28.831Z,28
2017-04-03T07:27:27.367Z,28.1
2017-04-03T07:28:34.028Z,28.1
2017-04-03T07:29:28.674Z,28.2
2017-04-03T07:30:30.399Z,28.2
2017-04-03T07:31:29.363Z,28.3
2017-04-03T07:32:29.344Z,28.4
2017-04-03T07:33:28.003Z,28.4
2017-04-03T07:34:29.472Z,28.4
2017-04-03T07:35:27.993Z,28.5
2017-04-03T07:36:27.992Z,28.5
2017-04-03T07:37:29.526Z,28.5
2017-04-03T07:38:29.582Z,28.6
2017-04-03T07:39:30.285Z,28.6
2017-04-03T07:40:28.140Z,28.6
2017-04-03T07:41:29.753Z,28.6
2017-04-03T07:42:28.562Z,28.7
2017-04-03T07:43:28.728Z,28.7
2017-04-03T07:44:28.367Z,28.7
2017-04-03T07:45:29.954Z,28.7
2017-04-03T07:46:28.418Z,28.8
2017-04-03T07:47:28.534Z,28.8
2017-04-03T07:48:28.661Z,28.8
2017-04-03T07:49:28.769Z,28.8
2017-04-03T07:50:28.710Z,28.8
2017-04-03T07:51:30.319Z,28.9
2017-04-03T07:52:28.789Z,28.9
2017-04-03T07:53:28.565Z,29
2017-04-03T07:54:28.787Z,29
2017-04-03T07:55:31.518Z,29
2017-04-03T07:56:31.079Z,29
2017-04-03T07:57:29.425Z,29
2017-04-03T07:58:28.710Z,29.1
2017-04-03T07:59:29.546Z,29.1
2017-04-03T08:00:28.876Z,29.1
2017-04-03T08:01:31.158Z,29.1
2017-04-03T08:02:30.940Z,29.1
2017-04-03T08:03:30.627Z,29.1
2017-04-03T08:04:28.937Z,29.2
2017-04-03T08:05:29.779Z,29.2
2017-04-03T08:06:31.026Z,29.2
2017-04-03T08:07:29.981Z,29.2
2017-04-03T08:08:30.375Z,29.2
2017-04-03T08:09:29.243Z,29.2
2017-04-03T08:10:29.482Z,29.3
2017-04-03T08:11:29.200Z,29.3
2017-04-03T08:12:31.638Z,29.3
2017-04-03T08:13:31.633Z,29.3
2017-04-03T08:14:29.467Z,29.3
2017-04-03T08:15:29.434Z,29.3
2017-04-03T08:16:30.946Z,29.3
2017-04-03T08:17:31.347Z,29.4
2017-04-03T08:18:31.245Z,29.4
2017-04-03T08:19:30.175Z,29.4
2017-04-03T08:20:30.415Z,29.4
2017-04-03T08:21:29.826Z,29.5
2017-04-03T08:22:30.291Z,29.4
2017-04-03T08:23:30.390Z,29.5
2017-04-03T08:24:30.079Z,29.5
2017-04-03T08:25:31.619Z,29.5
2017-04-03T08:26:31.665Z,29.5
2017-04-03T08:27:31.720Z,29.5
2017-04-03T08:28:30.080Z,29.6
2017-04-03T08:29:30.269Z,29.6
2017-04-03T08:30:32.311Z,29.6
2017-04-03T08:31:30.873Z,29.6
2017-04-03T08:32:32.376Z,29.7
2017-04-03T08:33:31.897Z,29.7
2017-04-03T08:34:32.180Z,29.7
2017-04-03T08:35:30.681Z,29.7
2017-04-03T08:36:32.228Z,29.7
2017-04-03T08:37:30.630Z,29.8
2017-04-03T08:38:30.749Z,29.8
2017-04-03T08:39:32.493Z,29.8
2017-04-03T08:40:30.830Z,29.8
2017-04-03T08:41:31.830Z,29.8
2017-04-03T08:42:30.935Z,29.8
2017-04-03T08:43:30.993Z,29.8
2017-04-03T08:44:33.376Z,29.8
2017-04-03T08:45:31.120Z,29.8
2017-04-03T08:46:31.018Z,29.8
2017-04-03T08:47:33.407Z,29.9
2017-04-03T08:48:32.762Z,29.9
2017-04-03T08:49:31.815Z,29.9
2017-04-03T08:50:34.242Z,29.9
2017-04-03T08:51:31.479Z,29.9
2017-04-03T08:52:33.660Z,29.9
2017-04-03T08:53:32.950Z,29.9
2017-04-03T08:54:33.097Z,29.9
2017-04-03T08:55:31.471Z,29.9
2017-04-03T08:56:32.869Z,29.9
2017-04-03T08:57:31.735Z,29.9
2017-04-03T08:58:31.591Z,29.9
2017-04-03T08:59:31.699Z,29.9
2017-04-03T09:00:31.645Z,29.9
2017-04-03T09:01:31.898Z,30
2017-04-03T09:02:33.428Z,30
2017-04-03T09:03:31.983Z,30
2017-04-03T09:04:34.019Z,30
2017-04-03T09:05:34.370Z,30.1
2017-04-03T09:06:32.222Z,30.1
2017-04-03T09:07:32.722Z,30.2
2017-04-03T09:08:34.018Z,30.2
2017-04-03T09:09:33.600Z,30.2
2017-04-03T09:10:36.074Z,30.3
2017-04-03T09:11:35.121Z,30.3
2017-04-03T09:12:35.282Z,30.3
2017-04-03T09:13:34.674Z,30.3
2017-04-03T09:14:33.243Z,30.3
2017-04-03T09:15:33.130Z,30.3
2017-04-03T09:16:34.860Z,30.3
2017-04-03T09:17:34.702Z,30.3
2017-04-03T09:18:32.799Z,30.3
2017-04-03T09:19:33.315Z,30.4
2017-04-03T09:20:33.295Z,30.4
2017-04-03T09:21:35.024Z,30.4
2017-04-03T09:22:34.334Z,30.4
2017-04-03T09:23:34.983Z,30.5
2017-04-03T09:24:34.538Z,30.4
2017-04-03T09:25:35.404Z,30.5
2017-04-03T09:26:33.168Z,30.5
2017-04-03T09:27:32.921Z,30.5
2017-04-03T09:28:34.598Z,30.4
2017-04-03T09:29:35.987Z,30.5
2017-04-03T09:30:34.210Z,30.4
2017-04-03T09:31:34.629Z,30.4
2017-04-03T09:32:34.996Z,30.4
2017-04-03T09:33:35.013Z,30.4
2017-04-03T09:34:35.051Z,30.5
2017-04-03T09:35:35.198Z,30.5
2017-04-03T09:36:34.608Z,30.5
2017-04-03T09:37:35.228Z,30.5
2017-04-03T09:38:35.279Z,30.5
2017-04-03T09:39:34.616Z,30.5
2017-04-03T09:40:34.625Z,30.5
2017-04-03T09:41:36.146Z,30.5
2017-04-03T09:42:34.991Z,30.3
2017-04-03T09:43:35.688Z,30.5
2017-04-03T09:44:34.858Z,30.6
2017-04-03T09:45:35.939Z,30.6
2017-04-03T09:46:34.096Z,30.6
2017-04-03T09:47:35.057Z,30.6
2017-04-03T09:48:34.250Z,30.6
2017-04-03T09:49:34.919Z,30.6
2017-04-03T09:50:35.964Z,30.6
2017-04-03T09:51:39.263Z,30.7
2017-04-03T09:52:36.126Z,30.7
2017-04-03T09:53:35.571Z,30.7
2017-04-03T09:54:36.276Z,30.7
2017-04-03T09:55:36.908Z,30.7
2017-04-03T09:56:34.710Z,30.7
2017-04-03T09:57:35.004Z,30.7
2017-04-03T09:58:35.537Z,30.7
2017-04-03T09:59:36.664Z,30.8
2017-04-03T10:00:35.492Z,30.8
2017-04-03T10:01:35.577Z,30.8
2017-04-03T10:02:35.957Z,30.8
2017-04-03T10:03:37.642Z,30.9
2017-04-03T10:04:36.028Z,30.8
2017-04-03T10:05:35.187Z,30.9
2017-04-03T10:06:36.887Z,30.9
2017-04-03T10:07:38.398Z,30.9
2017-04-03T10:08:35.533Z,30.9
2017-04-03T10:09:37.238Z,30.9
2017-04-03T10:10:37.102Z,30.9
2017-04-03T10:11:35.502Z,31
2017-04-03T10:12:38.317Z,31
2017-04-03T10:13:35.797Z,31
2017-04-03T10:14:36.354Z,31.1
2017-04-03T10:15:36.512Z,31.1
2017-04-03T10:16:37.480Z,31.1
2017-04-03T10:17:35.964Z,31.1
2017-04-03T10:18:38.111Z,31.1
2017-04-03T10:19:37.514Z,31.1
2017-04-03T10:20:38.721Z,31.1
2017-04-03T10:21:40.095Z,31.1
2017-04-03T10:22:40.606Z,31.1
2017-04-03T10:23:37.437Z,31.1
2017-04-03T10:24:37.852Z,31.2
2017-04-03T10:25:37.846Z,31.3
2017-04-03T10:26:37.933Z,31.3
2017-04-03T10:27:37.945Z,31.4
2017-04-03T10:28:36.463Z,31.4
2017-04-03T10:29:40.994Z,31.4
2017-04-03T10:30:38.291Z,31.4
2017-04-03T10:31:38.765Z,31.4
2017-04-03T10:32:36.609Z,31.4
2017-04-03T10:33:39.620Z,31.5
2017-04-03T10:34:39.148Z,31.5
2017-04-03T10:35:38.831Z,31.5
2017-04-03T10:36:36.917Z,31.6
2017-04-03T10:37:39.246Z,31.6
2017-04-03T10:38:39.612Z,31.7
2017-04-03T10:39:39.419Z,31.7
2017-04-03T10:40:40.820Z,31.8
2017-04-03T10:41:41.163Z,31.8
2017-04-03T10:42:36.952Z,31.9
2017-04-03T10:43:39.393Z,32
2017-04-03T10:44:39.795Z,32.1
2017-04-03T10:45:38.744Z,32.1
2017-04-03T10:46:38.861Z,32.1
2017-04-03T10:47:37.990Z,32.1
2017-04-03T10:48:40.226Z,32.1
2017-04-03T10:49:37.486Z,32.1
2017-04-03T10:50:38.223Z,32.1
2017-04-03T10:51:38.088Z,32.2
2017-04-03T10:52:38.185Z,32.2
2017-04-03T10:53:40.401Z,32.3
2017-04-03T10:54:37.455Z,32.3
2017-04-03T10:55:39.295Z,32.3
2017-04-03T10:56:37.739Z,32.3
2017-04-03T10:57:38.422Z,32.4
2017-04-03T10:58:37.914Z,32.4
2017-04-03T10:59:39.955Z,32.5
2017-04-03T11:00:39.957Z,32.4
2017-04-03T11:01:39.150Z,32.4
2017-04-03T11:02:40.177Z,32.4
2017-04-03T11:03:40.094Z,32.5
2017-04-03T11:04:38.046Z,32.6
2017-04-03T11:05:39.314Z,32.7
2017-04-03T11:06:38.187Z,32.8
2017-04-03T11:07:39.846Z,33.1
2017-04-03T11:08:38.237Z,33.3
2017-04-03T11:09:40.569Z,33.5
2017-04-03T11:10:40.029Z,33.3
2017-04-03T11:11:40.232Z,33.1
2017-04-03T11:12:42.193Z,33.1
2017-04-03T11:13:38.623Z,33.1
2017-04-03T11:14:38.475Z,33
2017-04-03T11:15:40.733Z,32.8
2017-04-03T11:16:40.292Z,32.7
2017-04-03T11:17:38.610Z,32.6
2017-04-03T11:18:40.272Z,32.6
2017-04-03T11:19:40.311Z,32.6
2017-04-03T11:20:42.239Z,32.6
2017-04-03T11:21:42.289Z,32.8
2017-04-03T11:22:41.177Z,32.8
2017-04-03T11:23:41.025Z,32.7
2017-04-03T11:24:39.068Z,32.6
2017-04-03T11:25:38.881Z,32.6
2017-04-03T11:26:39.436Z,32.7
2017-04-03T11:27:39.104Z,32.8
2017-04-03T11:28:39.139Z,32.7
2017-04-03T11:29:39.159Z,32.7
2017-04-03T11:30:40.291Z,32.8
2017-04-03T11:31:39.863Z,32.7
2017-04-03T11:32:39.272Z,32.5
2017-04-03T11:33:42.195Z,32.3
2017-04-03T11:34:40.819Z,32.1
2017-04-03T11:35:40.943Z,31.9
2017-04-03T11:36:41.789Z,31.7
2017-04-03T11:37:41.742Z,31.5
2017-04-03T11:38:39.536Z,31.3
2017-04-03T11:39:41.955Z,31.2
2017-04-03T11:40:43.284Z,31
2017-04-03T11:41:44.593Z,30.9
2017-04-03T11:42:42.000Z,30.8
2017-04-03T11:43:42.153Z,30.7
2017-04-03T11:44:44.473Z,30.7
2017-04-03T11:45:42.506Z,30.6
2017-04-03T11:46:41.649Z,30.6
2017-04-03T11:47:41.644Z,30.5
2017-04-03T11:48:41.591Z,30.5
2017-04-03T11:49:40.072Z,30.4
2017-04-03T11:50:42.502Z,30.4
2017-04-03T11:51:42.419Z,30.3
2017-04-03T11:52:43.046Z,30.3
2017-04-03T11:53:41.260Z,30.3
2017-04-03T11:54:42.629Z,30.2
2017-04-03T11:55:42.318Z,30.2
2017-04-03T11:56:40.582Z,30.1
2017-04-03T11:57:41.199Z,30.1
2017-04-03T11:58:40.758Z,30
2017-04-03T11:59:40.683Z,30
2017-04-03T12:00:40.603Z,30
2017-04-03T12:01:40.702Z,30
2017-04-03T12:02:45.173Z,30
2017-04-03T12:03:46.587Z,29.9
2017-04-03T12:04:45.496Z,29.9
2017-04-03T12:05:42.436Z,29.9
2017-04-03T12:06:41.595Z,29.9
2017-04-03T12:07:45.276Z,29.9
2017-04-03T12:08:41.039Z,29.9
2017-04-03T12:09:41.166Z,29.9
2017-04-03T12:10:42.006Z,29.9
2017-04-03T12:11:42.596Z,29.9
2017-04-03T12:12:41.960Z,29.8
2017-04-03T12:13:45.954Z,29.8
2017-04-03T12:14:42.911Z,29.8
2017-04-03T12:15:42.996Z,29.8
2017-04-03T12:16:41.503Z,29.7
2017-04-03T12:17:41.524Z,29.7
2017-04-03T12:18:42.258Z,29.6
2017-04-03T12:19:43.673Z,29.6
2017-04-03T12:20:41.668Z,29.7
2017-04-03T12:21:42.648Z,29.8
2017-04-03T12:22:46.007Z,29.8
2017-04-03T12:23:42.012Z,29.9
2017-04-03T12:24:43.489Z,30
2017-04-03T12:25:44.696Z,30
2017-04-03T12:26:42.018Z,30.1
2017-04-03T12:27:42.026Z,30.2
2017-04-03T12:28:43.618Z,30.2
2017-04-03T12:29:42.337Z,30.3
2017-04-03T12:30:42.310Z,30.2
2017-04-03T12:31:43.330Z,30.2
2017-04-03T12:32:45.759Z,30.1
2017-04-03T12:33:44.757Z,30.1
2017-04-03T12:34:43.465Z,30.1
2017-04-03T12:35:47.240Z,30.1
2017-04-03T12:36:44.146Z,30.1
2017-04-03T12:37:42.577Z,30
2017-04-03T12:38:43.392Z,30.1
2017-04-03T12:39:43.913Z,30
2017-04-03T12:40:45.407Z,30
2017-04-03T12:41:46.527Z,30
2017-04-03T12:42:44.568Z,29.9
2017-04-03T12:43:42.861Z,30
2017-04-03T12:44:49.142Z,30
2017-04-03T12:45:43.031Z,30
2017-04-03T12:46:45.330Z,29.9
2017-04-03T12:47:43.000Z,29.9
2017-04-03T12:48:46.499Z,29.9
2017-04-03T12:49:44.686Z,29.9
2017-04-03T12:50:43.616Z,29.9
2017-04-03T12:51:44.041Z,30
2017-04-03T12:52:47.993Z,30
2017-04-03T12:53:45.632Z,30.1
2017-04-03T12:54:49.322Z,30.1
2017-04-03T12:55:43.905Z,30.1
2017-04-03T12:56:45.131Z,30.2
2017-04-03T12:57:43.624Z,30.2
2017-04-03T12:58:45.216Z,30.2
2017-04-03T12:59:43.634Z,30.2
2017-04-03T13:00:46.137Z,30.2
2017-04-03T13:01:46.377Z,30.2
2017-04-03T13:02:45.305Z,30.2
2017-04-03T13:03:46.544Z,30.2
2017-04-03T13:04:43.748Z,30.2
2017-04-03T13:05:44.067Z,30.3
2017-04-03T13:06:46.053Z,30.4
2017-04-03T13:07:45.640Z,30.5
2017-04-03T13:08:45.669Z,30.5
2017-04-03T13:09:45.104Z,30.5
2017-04-03T13:10:45.760Z,30.5
2017-04-03T13:11:44.707Z,30.6
2017-04-03T13:12:45.810Z,30.6
2017-04-03T13:13:44.329Z,30.7
2017-04-03T13:14:44.883Z,30.8
2017-04-03T13:15:45.478Z,30.8
2017-04-03T13:16:46.706Z,30.8
2017-04-03T13:17:46.811Z,30.9
2017-04-03T13:18:46.147Z,30.9
2017-04-03T13:19:44.695Z,30.9
2017-04-03T13:20:45.336Z,31
2017-04-03T13:21:45.452Z,31
2017-04-03T13:22:45.568Z,31.1
2017-04-03T13:23:47.284Z,31.1
2017-04-03T13:24:45.569Z,31.1
2017-04-03T13:25:45.172Z,31.1
2017-04-03T13:26:45.071Z,31.1